sensor_id;sensor_type;location;lat;lon;timestamp;temperature;humidity
5560;DHT22;2803;47.916;8.074;2024-02-26T00:00:31;8.00;99.90
5560;DHT22;2803;47.916;8.074;2024-02-26T00:03:00;7.90;99.90
5560;DHT22;2803;47.916;8.074;2024-02-26T00:05:26;7.90;99.90
5560;DHT22;2803;47.916;8.074;2024-02-26T00:07:53;8.00;99.90
5560;DHT22;2803;47.916;8.074;2024-02-26T00:10:20;8.50;99.90
5560;DHT22;2803;47.916;8.074;2024-02-26T00:12:47;8.80;99.90
5560;DHT22;2803;47.916;8.074;2024-02-26T00:15:15;8.80;99.90
5560;DHT22;2803;47.916;8.074;2024-02-26T00:17:41;9.00;99.90
5560;DHT22;2803;47.916;8.074;2024-02-26T00:20:10;9.30;99.90
5560;DHT22;2803;47.916;8.074;2024-02-26T00:22:37;9.20;99.90
5560;DHT22;2803;47.916;8.074;2024-02-26T00:25:04;9.20;99.90
5560;DHT22;2803;47.916;8.074;2024-02-26T00:27:31;9.10;99.90
5560;DHT22;2803;47.916;8.074;2024-02-26T00:29:57;9.00;99.90
5560;DHT22;2803;47.916;8.074;2024-02-26T00:32:25;9.10;99.90
5560;DHT22;2803;47.916;8.074;2024-02-26T00:34:52;9.20;99.90
5560;DHT22;2803;47.916;8.074;2024-02-26T00:37:18;9.20;99.90
5560;DHT22;2803;47.916;8.074;2024-02-26T00:39:45;9.10;99.90
5560;DHT22;2803;47.916;8.074;2024-02-26T00:42:12;9.10;99.90
5560;DHT22;2803;47.916;8.074;2024-02-26T00:44:38;8.90;99.90
5560;DHT22;2803;47.916;8.074;2024-02-26T00:47:06;8.80;99.90
5560;DHT22;2803;47.916;8.074;2024-02-26T00:49:35;9.00;99.90
5560;DHT22;2803;47.916;8.074;2024-02-26T00:52:01;8.80;99.90
5560;DHT22;2803;47.916;8.074;2024-02-26T00:54:28;8.90;99.90
5560;DHT22;2803;47.916;8.074;2024-02-26T00:56:55;8.90;99.90
5560;DHT22;2803;47.916;8.074;2024-02-26T00:59:22;8.70;99.90
5560;DHT22;2803;47.916;8.074;2024-02-26T01:01:48;8.60;99.90
5560;DHT22;2803;47.916;8.074;2024-02-26T01:04:15;8.60;99.90
5560;DHT22;2803;47.916;8.074;2024-02-26T01:06:43;8.70;99.90
5560;DHT22;2803;47.916;8.074;2024-02-26T01:09:09;8.70;99.90
5560;DHT22;2803;47.916;8.074;2024-02-26T01:11:36;8.70;99.90
5560;DHT22;2803;47.916;8.074;2024-02-26T01:14:02;8.30;99.90
5560;DHT22;2803;47.916;8.074;2024-02-26T01:16:29;8.50;99.90
5560;DHT22;2803;47.916;8.074;2024-02-26T01:18:57;8.70;99.90
5560;DHT22;2803;47.916;8.074;2024-02-26T01:21:23;8.80;99.90
5560;DHT22;2803;47.916;8.074;2024-02-26T01:23:51;8.80;99.90
5560;DHT22;2803;47.916;8.074;2024-02-26T01:26:18;8.80;99.90
5560;DHT22;2803;47.916;8.074;2024-02-26T01:28:44;8.70;99.90
5560;DHT22;2803;47.916;8.074;2024-02-26T01:31:11;8.50;99.90
5560;DHT22;2803;47.916;8.074;2024-02-26T01:33:38;8.50;99.90
5560;DHT22;2803;47.916;8.074;2024-02-26T01:36:04;8.40;99.90
5560;DHT22;2803;47.916;8.074;2024-02-26T01:38:31;8.30;99.90
5560;DHT22;2803;47.916;8.074;2024-02-26T01:40:59;8.50;99.90
5560;DHT22;2803;47.916;8.074;2024-02-26T01:43:26;8.40;99.90
5560;DHT22;2803;47.916;8.074;2024-02-26T01:45:53;8.40;99.90
5560;DHT22;2803;47.916;8.074;2024-02-26T01:48:20;8.50;99.90
5560;DHT22;2803;47.916;8.074;2024-02-26T01:50:47;8.70;99.90
5560;DHT22;2803;47.916;8.074;2024-02-26T01:53:14;8.70;99.90
5560;DHT22;2803;47.916;8.074;2024-02-26T01:55:41;9.10;99.90
5560;DHT22;2803;47.916;8.074;2024-02-26T01:58:09;9.30;99.90
5560;DHT22;2803;47.916;8.074;2024-02-26T02:00:36;9.00;99.90
5560;DHT22;2803;47.916;8.074;2024-02-26T02:03:04;8.90;99.90
5560;DHT22;2803;47.916;8.074;2024-02-26T02:05:31;8.90;99.90
5560;DHT22;2803;47.916;8.074;2024-02-26T02:07:59;8.30;99.90
5560;DHT22;2803;47.916;8.074;2024-02-26T02:10:26;7.80;99.90
5560;DHT22;2803;47.916;8.074;2024-02-26T02:12:53;7.80;99.90
5560;DHT22;2803;47.916;8.074;2024-02-26T02:15:21;7.60;99.90
5560;DHT22;2803;47.916;8.074;2024-02-26T02:17:48;7.70;99.90
5560;DHT22;2803;47.916;8.074;2024-02-26T02:20:16;7.50;99.90
5560;DHT22;2803;47.916;8.074;2024-02-26T02:22:44;7.70;99.90
5560;DHT22;2803;47.916;8.074;2024-02-26T02:25:11;7.90;99.90
5560;DHT22;2803;47.916;8.074;2024-02-26T02:27:38;8.00;99.90
5560;DHT22;2803;47.916;8.074;2024-02-26T02:30:06;8.10;99.90
5560;DHT22;2803;47.916;8.074;2024-02-26T02:32:34;8.40;99.90
5560;DHT22;2803;47.916;8.074;2024-02-26T02:35:02;8.30;99.90
5560;DHT22;2803;47.916;8.074;2024-02-26T02:37:29;8.20;99.90
5560;DHT22;2803;47.916;8.074;2024-02-26T02:39:57;8.50;99.90
5560;DHT22;2803;47.916;8.074;2024-02-26T02:42:23;8.50;99.90
5560;DHT22;2803;47.916;8.074;2024-02-26T02:44:50;8.30;99.90
5560;DHT22;2803;47.916;8.074;2024-02-26T02:47:17;8.00;99.90
5560;DHT22;2803;47.916;8.074;2024-02-26T02:49:43;7.70;99.90
5560;DHT22;2803;47.916;8.074;2024-02-26T02:52:10;7.60;99.90
5560;DHT22;2803;47.916;8.074;2024-02-26T02:54:36;7.70;99.90
5560;DHT22;2803;47.916;8.074;2024-02-26T02:57:07;7.70;99.90
5560;DHT22;2803;47.916;8.074;2024-02-26T02:59:33;7.80;99.90
5560;DHT22;2803;47.916;8.074;2024-02-26T03:02:00;7.60;99.90
5560;DHT22;2803;47.916;8.074;2024-02-26T03:04:26;7.70;99.90
5560;DHT22;2803;47.916;8.074;2024-02-26T03:06:54;7.90;99.90
5560;DHT22;2803;47.916;8.074;2024-02-26T03:09:21;7.90;99.90
5560;DHT22;2803;47.916;8.074;2024-02-26T03:11:48;7.50;99.90
5560;DHT22;2803;47.916;8.074;2024-02-26T03:14:16;7.80;99.90
5560;DHT22;2803;47.916;8.074;2024-02-26T03:16:42;7.80;99.90
5560;DHT22;2803;47.916;8.074;2024-02-26T03:19:09;8.00;99.90
5560;DHT22;2803;47.916;8.074;2024-02-26T03:21:35;7.90;99.90
5560;DHT22;2803;47.916;8.074;2024-02-26T03:24:02;7.80;99.90
5560;DHT22;2803;47.916;8.074;2024-02-26T03:26:28;7.80;99.90
5560;DHT22;2803;47.916;8.074;2024-02-26T03:28:57;7.40;99.90
5560;DHT22;2803;47.916;8.074;2024-02-26T03:31:25;7.50;99.90
5560;DHT22;2803;47.916;8.074;2024-02-26T03:33:52;7.40;99.90
5560;DHT22;2803;47.916;8.074;2024-02-26T03:36:18;7.40;99.90
5560;DHT22;2803;47.916;8.074;2024-02-26T03:38:46;7.10;99.90
5560;DHT22;2803;47.916;8.074;2024-02-26T03:41:13;7.20;99.90
5560;DHT22;2803;47.916;8.074;2024-02-26T03:43:40;7.10;99.90
5560;DHT22;2803;47.916;8.074;2024-02-26T03:46:07;7.00;99.90
5560;DHT22;2803;47.916;8.074;2024-02-26T03:48:35;6.60;99.90
5560;DHT22;2803;47.916;8.074;2024-02-26T03:51:02;6.40;99.90
5560;DHT22;2803;47.916;8.074;2024-02-26T03:53:28;6.60;99.90
5560;DHT22;2803;47.916;8.074;2024-02-26T03:55:55;6.70;99.90
5560;DHT22;2803;47.916;8.074;2024-02-26T03:58:21;6.40;99.90
5560;DHT22;2803;47.916;8.074;2024-02-26T04:00:48;6.40;99.90
5560;DHT22;2803;47.916;8.074;2024-02-26T04:03:15;6.20;99.90
5560;DHT22;2803;47.916;8.074;2024-02-26T04:05:43;6.60;99.90
5560;DHT22;2803;47.916;8.074;2024-02-26T04:08:09;6.90;99.90
5560;DHT22;2803;47.916;8.074;2024-02-26T04:10:36;6.60;99.90
5560;DHT22;2803;47.916;8.074;2024-02-26T04:13:04;6.60;99.90
5560;DHT22;2803;47.916;8.074;2024-02-26T04:15:31;6.40;99.90
5560;DHT22;2803;47.916;8.074;2024-02-26T04:17:57;6.40;99.90
5560;DHT22;2803;47.916;8.074;2024-02-26T04:20:24;6.40;99.90
5560;DHT22;2803;47.916;8.074;2024-02-26T04:22:52;6.40;99.90
5560;DHT22;2803;47.916;8.074;2024-02-26T04:25:19;6.20;99.90
5560;DHT22;2803;47.916;8.074;2024-02-26T04:27:45;6.10;99.90
5560;DHT22;2803;47.916;8.074;2024-02-26T04:30:12;6.20;99.90
5560;DHT22;2803;47.916;8.074;2024-02-26T04:32:39;6.10;99.90
5560;DHT22;2803;47.916;8.074;2024-02-26T04:35:05;6.20;99.90
5560;DHT22;2803;47.916;8.074;2024-02-26T04:37:32;6.30;99.90
5560;DHT22;2803;47.916;8.074;2024-02-26T04:40:00;6.10;99.90
5560;DHT22;2803;47.916;8.074;2024-02-26T04:42:26;6.10;99.90
5560;DHT22;2803;47.916;8.074;2024-02-26T04:44:54;6.10;99.90
5560;DHT22;2803;47.916;8.074;2024-02-26T04:47:21;6.10;99.90
5560;DHT22;2803;47.916;8.074;2024-02-26T04:49:48;6.30;99.90
5560;DHT22;2803;47.916;8.074;2024-02-26T04:52:15;6.30;99.90
5560;DHT22;2803;47.916;8.074;2024-02-26T04:54:42;6.40;99.90
5560;DHT22;2803;47.916;8.074;2024-02-26T04:57:10;6.30;99.90
5560;DHT22;2803;47.916;8.074;2024-02-26T04:59:37;6.10;99.90
5560;DHT22;2803;47.916;8.074;2024-02-26T05:02:06;6.10;99.90
5560;DHT22;2803;47.916;8.074;2024-02-26T05:04:32;6.10;99.90
5560;DHT22;2803;47.916;8.074;2024-02-26T05:06:59;6.00;99.90
5560;DHT22;2803;47.916;8.074;2024-02-26T05:09:25;6.20;99.90
5560;DHT22;2803;47.916;8.074;2024-02-26T05:11:52;6.50;99.90
5560;DHT22;2803;47.916;8.074;2024-02-26T05:14:20;6.30;99.90
5560;DHT22;2803;47.916;8.074;2024-02-26T05:16:46;6.30;99.90
5560;DHT22;2803;47.916;8.074;2024-02-26T05:19:13;6.60;99.90
5560;DHT22;2803;47.916;8.074;2024-02-26T05:21:40;6.80;99.90
5560;DHT22;2803;47.916;8.074;2024-02-26T05:24:08;6.80;99.90
5560;DHT22;2803;47.916;8.074;2024-02-26T05:26:34;7.00;99.90
5560;DHT22;2803;47.916;8.074;2024-02-26T05:29:01;6.80;99.90
5560;DHT22;2803;47.916;8.074;2024-02-26T05:31:29;7.10;99.90
5560;DHT22;2803;47.916;8.074;2024-02-26T05:33:55;7.00;99.90
5560;DHT22;2803;47.916;8.074;2024-02-26T05:36:22;6.80;99.90
5560;DHT22;2803;47.916;8.074;2024-02-26T05:38:50;6.70;99.90
5560;DHT22;2803;47.916;8.074;2024-02-26T05:41:17;6.80;99.90
5560;DHT22;2803;47.916;8.074;2024-02-26T05:43:48;7.00;99.90
5560;DHT22;2803;47.916;8.074;2024-02-26T05:46:16;6.90;99.90
5560;DHT22;2803;47.916;8.074;2024-02-26T05:48:44;7.50;99.90
5560;DHT22;2803;47.916;8.074;2024-02-26T05:51:11;7.50;99.90
5560;DHT22;2803;47.916;8.074;2024-02-26T05:53:38;7.70;99.90
5560;DHT22;2803;47.916;8.074;2024-02-26T05:56:06;7.50;99.90
5560;DHT22;2803;47.916;8.074;2024-02-26T05:58:32;7.30;99.90
5560;DHT22;2803;47.916;8.074;2024-02-26T06:00:59;7.40;99.90
5560;DHT22;2803;47.916;8.074;2024-02-26T06:03:26;7.50;99.90
5560;DHT22;2803;47.916;8.074;2024-02-26T06:05:54;7.70;99.90
5560;DHT22;2803;47.916;8.074;2024-02-26T06:08:20;7.70;99.90
5560;DHT22;2803;47.916;8.074;2024-02-26T06:10:47;7.40;99.90
5560;DHT22;2803;47.916;8.074;2024-02-26T06:13:14;7.70;99.90
5560;DHT22;2803;47.916;8.074;2024-02-26T06:15:40;7.60;99.90
5560;DHT22;2803;47.916;8.074;2024-02-26T06:18:07;7.60;99.90
5560;DHT22;2803;47.916;8.074;2024-02-26T06:20:33;7.70;99.90
5560;DHT22;2803;47.916;8.074;2024-02-26T06:23:01;7.40;99.90
5560;DHT22;2803;47.916;8.074;2024-02-26T06:25:28;7.20;99.90
5560;DHT22;2803;47.916;8.074;2024-02-26T06:27:54;7.30;99.90
5560;DHT22;2803;47.916;8.074;2024-02-26T06:30:21;7.30;99.90
5560;DHT22;2803;47.916;8.074;2024-02-26T06:32:48;7.30;99.90
5560;DHT22;2803;47.916;8.074;2024-02-26T06:35:14;7.20;99.90
5560;DHT22;2803;47.916;8.074;2024-02-26T06:37:42;7.30;99.90
5560;DHT22;2803;47.916;8.074;2024-02-26T06:40:11;7.40;99.90
5560;DHT22;2803;47.916;8.074;2024-02-26T06:42:38;7.10;99.90
5560;DHT22;2803;47.916;8.074;2024-02-26T06:45:05;7.30;99.90
5560;DHT22;2803;47.916;8.074;2024-02-26T06:47:33;7.10;99.90
5560;DHT22;2803;47.916;8.074;2024-02-26T06:49:59;7.30;99.90
5560;DHT22;2803;47.916;8.074;2024-02-26T06:52:26;7.00;99.90
5560;DHT22;2803;47.916;8.074;2024-02-26T06:54:53;7.00;99.90
5560;DHT22;2803;47.916;8.074;2024-02-26T06:57:20;7.20;99.90
5560;DHT22;2803;47.916;8.074;2024-02-26T06:59:47;7.20;99.90
5560;DHT22;2803;47.916;8.074;2024-02-26T07:02:14;7.20;99.90
5560;DHT22;2803;47.916;8.074;2024-02-26T07:04:41;7.20;99.90
5560;DHT22;2803;47.916;8.074;2024-02-26T07:07:08;6.90;99.90
5560;DHT22;2803;47.916;8.074;2024-02-26T07:09:36;7.30;99.90
5560;DHT22;2803;47.916;8.074;2024-02-26T07:12:03;6.90;99.90
5560;DHT22;2803;47.916;8.074;2024-02-26T07:14:31;6.80;99.90
5560;DHT22;2803;47.916;8.074;2024-02-26T07:16:59;7.20;99.90
5560;DHT22;2803;47.916;8.074;2024-02-26T07:19:25;7.60;99.90
5560;DHT22;2803;47.916;8.074;2024-02-26T07:21:52;8.00;99.90
5560;DHT22;2803;47.916;8.074;2024-02-26T07:24:20;7.90;99.90
5560;DHT22;2803;47.916;8.074;2024-02-26T07:26:47;8.20;99.90
5560;DHT22;2803;47.916;8.074;2024-02-26T07:29:13;8.30;99.90
5560;DHT22;2803;47.916;8.074;2024-02-26T07:31:41;8.20;99.90
5560;DHT22;2803;47.916;8.074;2024-02-26T07:34:08;8.10;99.90
5560;DHT22;2803;47.916;8.074;2024-02-26T07:36:34;8.10;99.90
5560;DHT22;2803;47.916;8.074;2024-02-26T07:39:01;8.20;99.90
5560;DHT22;2803;47.916;8.074;2024-02-26T07:41:28;8.40;99.90
5560;DHT22;2803;47.916;8.074;2024-02-26T07:43:54;8.50;99.90
5560;DHT22;2803;47.916;8.074;2024-02-26T07:46:21;8.30;99.90
5560;DHT22;2803;47.916;8.074;2024-02-26T07:48:49;7.90;99.90
5560;DHT22;2803;47.916;8.074;2024-02-26T07:51:17;7.90;99.90
5560;DHT22;2803;47.916;8.074;2024-02-26T07:53:44;7.90;99.90
5560;DHT22;2803;47.916;8.074;2024-02-26T07:56:11;8.00;99.90
5560;DHT22;2803;47.916;8.074;2024-02-26T07:58:37;7.60;99.90
5560;DHT22;2803;47.916;8.074;2024-02-26T08:01:04;7.70;99.90
5560;DHT22;2803;47.916;8.074;2024-02-26T08:03:31;7.70;99.90
5560;DHT22;2803;47.916;8.074;2024-02-26T08:05:58;7.70;99.90
5560;DHT22;2803;47.916;8.074;2024-02-26T08:08:25;8.00;99.90
5560;DHT22;2803;47.916;8.074;2024-02-26T08:10:52;8.10;99.90
5560;DHT22;2803;47.916;8.074;2024-02-26T08:13:18;8.20;99.90
5560;DHT22;2803;47.916;8.074;2024-02-26T08:15:45;8.40;99.90
5560;DHT22;2803;47.916;8.074;2024-02-26T08:18:11;8.60;99.90
5560;DHT22;2803;47.916;8.074;2024-02-26T08:20:38;8.90;99.90
5560;DHT22;2803;47.916;8.074;2024-02-26T08:23:06;9.10;99.90
5560;DHT22;2803;47.916;8.074;2024-02-26T08:25:32;8.70;99.90
5560;DHT22;2803;47.916;8.074;2024-02-26T08:27:59;8.60;99.90
5560;DHT22;2803;47.916;8.074;2024-02-26T08:30:26;8.60;99.90
5560;DHT22;2803;47.916;8.074;2024-02-26T08:32:52;8.80;99.90
5560;DHT22;2803;47.916;8.074;2024-02-26T08:35:19;8.90;99.90
5560;DHT22;2803;47.916;8.074;2024-02-26T08:37:46;9.20;99.90
5560;DHT22;2803;47.916;8.074;2024-02-26T08:40:15;9.60;99.90
5560;DHT22;2803;47.916;8.074;2024-02-26T08:42:41;9.50;99.90
5560;DHT22;2803;47.916;8.074;2024-02-26T08:45:08;9.70;99.90
5560;DHT22;2803;47.916;8.074;2024-02-26T08:47:36;10.10;99.90
5560;DHT22;2803;47.916;8.074;2024-02-26T08:50:03;9.70;99.90
5560;DHT22;2803;47.916;8.074;2024-02-26T08:52:30;9.30;99.90
5560;DHT22;2803;47.916;8.074;2024-02-26T08:54:57;9.90;99.90
5560;DHT22;2803;47.916;8.074;2024-02-26T08:57:25;10.40;99.90
5560;DHT22;2803;47.916;8.074;2024-02-26T08:59:52;10.90;99.90
5560;DHT22;2803;47.916;8.074;2024-02-26T09:02:19;10.60;99.90
5560;DHT22;2803;47.916;8.074;2024-02-26T09:04:46;10.80;99.90
5560;DHT22;2803;47.916;8.074;2024-02-26T09:07:12;11.10;99.90
5560;DHT22;2803;47.916;8.074;2024-02-26T09:09:39;11.30;99.90
5560;DHT22;2803;47.916;8.074;2024-02-26T09:12:05;11.40;99.90
5560;DHT22;2803;47.916;8.074;2024-02-26T09:14:33;10.80;99.90
5560;DHT22;2803;47.916;8.074;2024-02-26T09:16:59;10.60;99.90
5560;DHT22;2803;47.916;8.074;2024-02-26T09:19:26;10.80;99.90
5560;DHT22;2803;47.916;8.074;2024-02-26T09:21:53;11.10;99.90
5560;DHT22;2803;47.916;8.074;2024-02-26T09:24:22;11.60;99.90
5560;DHT22;2803;47.916;8.074;2024-02-26T09:26:49;11.90;99.90
5560;DHT22;2803;47.916;8.074;2024-02-26T09:29:17;11.70;99.90
5560;DHT22;2803;47.916;8.074;2024-02-26T09:31:45;12.10;99.90
5560;DHT22;2803;47.916;8.074;2024-02-26T09:34:12;12.10;99.90
5560;DHT22;2803;47.916;8.074;2024-02-26T09:36:39;11.90;99.90
5560;DHT22;2803;47.916;8.074;2024-02-26T09:39:06;11.80;99.90
5560;DHT22;2803;47.916;8.074;2024-02-26T09:41:36;11.80;99.90
5560;DHT22;2803;47.916;8.074;2024-02-26T09:44:04;11.80;99.90
5560;DHT22;2803;47.916;8.074;2024-02-26T09:46:31;12.20;99.90
5560;DHT22;2803;47.916;8.074;2024-02-26T09:48:59;12.40;99.90
5560;DHT22;2803;47.916;8.074;2024-02-26T09:51:26;13.10;99.90
5560;DHT22;2803;47.916;8.074;2024-02-26T09:53:53;13.60;99.90
5560;DHT22;2803;47.916;8.074;2024-02-26T09:56:20;13.80;99.90
5560;DHT22;2803;47.916;8.074;2024-02-26T09:58:47;13.60;99.90
5560;DHT22;2803;47.916;8.074;2024-02-26T10:01:19;13.60;99.90
5560;DHT22;2803;47.916;8.074;2024-02-26T10:03:52;13.50;99.90
5560;DHT22;2803;47.916;8.074;2024-02-26T10:06:20;13.40;99.90
5560;DHT22;2803;47.916;8.074;2024-02-26T10:08:47;12.70;99.90
5560;DHT22;2803;47.916;8.074;2024-02-26T10:11:15;12.40;99.90
5560;DHT22;2803;47.916;8.074;2024-02-26T10:13:42;12.10;99.90
5560;DHT22;2803;47.916;8.074;2024-02-26T10:16:08;12.30;99.90
5560;DHT22;2803;47.916;8.074;2024-02-26T10:18:51;11.70;99.90
5560;DHT22;2803;47.916;8.074;2024-02-26T10:21:20;12.30;99.90
5560;DHT22;2803;47.916;8.074;2024-02-26T10:23:47;12.80;99.90
5560;DHT22;2803;47.916;8.074;2024-02-26T10:26:15;13.30;99.90
5560;DHT22;2803;47.916;8.074;2024-02-26T10:28:42;13.70;99.90
5560;DHT22;2803;47.916;8.074;2024-02-26T10:31:09;14.20;99.90
5560;DHT22;2803;47.916;8.074;2024-02-26T10:33:36;14.50;99.90
5560;DHT22;2803;47.916;8.074;2024-02-26T10:36:04;14.70;99.90
5560;DHT22;2803;47.916;8.074;2024-02-26T10:38:33;14.90;99.90
5560;DHT22;2803;47.916;8.074;2024-02-26T10:41:01;15.00;99.90
5560;DHT22;2803;47.916;8.074;2024-02-26T10:43:28;14.90;99.90
5560;DHT22;2803;47.916;8.074;2024-02-26T10:45:55;15.00;99.90
5560;DHT22;2803;47.916;8.074;2024-02-26T10:48:22;15.50;99.90
5560;DHT22;2803;47.916;8.074;2024-02-26T10:50:49;15.60;99.90
5560;DHT22;2803;47.916;8.074;2024-02-26T10:53:17;15.60;99.90
5560;DHT22;2803;47.916;8.074;2024-02-26T10:55:49;15.50;99.90
5560;DHT22;2803;47.916;8.074;2024-02-26T10:58:18;16.10;99.90
5560;DHT22;2803;47.916;8.074;2024-02-26T11:00:45;16.40;99.90
5560;DHT22;2803;47.916;8.074;2024-02-26T11:03:14;16.70;99.90
5560;DHT22;2803;47.916;8.074;2024-02-26T11:05:43;16.80;99.90
5560;DHT22;2803;47.916;8.074;2024-02-26T11:08:11;15.70;99.90
5560;DHT22;2803;47.916;8.074;2024-02-26T11:10:39;15.90;99.90
5560;DHT22;2803;47.916;8.074;2024-02-26T11:13:10;16.40;99.90
5560;DHT22;2803;47.916;8.074;2024-02-26T11:15:39;16.40;99.90
5560;DHT22;2803;47.916;8.074;2024-02-26T11:18:07;16.60;99.90
5560;DHT22;2803;47.916;8.074;2024-02-26T11:20:38;17.00;99.90
5560;DHT22;2803;47.916;8.074;2024-02-26T11:23:07;16.90;99.90
5560;DHT22;2803;47.916;8.074;2024-02-26T11:25:34;16.90;99.90
5560;DHT22;2803;47.916;8.074;2024-02-26T11:28:04;16.20;99.90
5560;DHT22;2803;47.916;8.074;2024-02-26T11:30:35;16.50;99.90
5560;DHT22;2803;47.916;8.074;2024-02-26T11:33:05;15.90;99.90
5560;DHT22;2803;47.916;8.074;2024-02-26T11:35:33;15.50;99.90
5560;DHT22;2803;47.916;8.074;2024-02-26T11:38:00;15.30;99.90
5560;DHT22;2803;47.916;8.074;2024-02-26T11:40:27;15.00;99.90
5560;DHT22;2803;47.916;8.074;2024-02-26T11:42:54;15.10;99.90
5560;DHT22;2803;47.916;8.074;2024-02-26T11:45:47;15.60;99.90
5560;DHT22;2803;47.916;8.074;2024-02-26T11:48:16;14.80;99.90
5560;DHT22;2803;47.916;8.074;2024-02-26T11:50:46;15.10;99.90
5560;DHT22;2803;47.916;8.074;2024-02-26T11:53:21;15.20;99.90
5560;DHT22;2803;47.916;8.074;2024-02-26T11:55:51;14.90;99.90
5560;DHT22;2803;47.916;8.074;2024-02-26T11:58:39;15.10;99.90
5560;DHT22;2803;47.916;8.074;2024-02-26T12:04:13;15.30;99.90
5560;DHT22;2803;47.916;8.074;2024-02-26T12:06:42;15.10;99.90
5560;DHT22;2803;47.916;8.074;2024-02-26T12:09:09;14.60;99.90
5560;DHT22;2803;47.916;8.074;2024-02-26T12:11:37;13.90;99.90
5560;DHT22;2803;47.916;8.074;2024-02-26T12:14:05;13.90;99.90
5560;DHT22;2803;47.916;8.074;2024-02-26T12:16:36;14.50;99.90
5560;DHT22;2803;47.916;8.074;2024-02-26T12:19:04;14.60;99.90
5560;DHT22;2803;47.916;8.074;2024-02-26T12:21:33;14.20;99.90
5560;DHT22;2803;47.916;8.074;2024-02-26T12:24:09;14.40;99.90
5560;DHT22;2803;47.916;8.074;2024-02-26T12:26:36;14.80;99.90
5560;DHT22;2803;47.916;8.074;2024-02-26T12:29:02;15.00;99.90
5560;DHT22;2803;47.916;8.074;2024-02-26T12:31:29;15.10;99.90
5560;DHT22;2803;47.916;8.074;2024-02-26T12:33:58;15.20;99.90
5560;DHT22;2803;47.916;8.074;2024-02-26T12:36:25;15.50;99.90
5560;DHT22;2803;47.916;8.074;2024-02-26T12:38:52;14.70;99.90
5560;DHT22;2803;47.916;8.074;2024-02-26T12:41:18;14.80;99.90
5560;DHT22;2803;47.916;8.074;2024-02-26T12:43:46;15.10;99.90
5560;DHT22;2803;47.916;8.074;2024-02-26T12:46:12;15.20;99.90
5560;DHT22;2803;47.916;8.074;2024-02-26T12:48:41;14.80;99.90
5560;DHT22;2803;47.916;8.074;2024-02-26T12:51:10;15.10;99.90
5560;DHT22;2803;47.916;8.074;2024-02-26T12:53:38;15.40;99.90
5560;DHT22;2803;47.916;8.074;2024-02-26T12:56:05;15.10;99.90
5560;DHT22;2803;47.916;8.074;2024-02-26T12:58:33;15.10;99.90
5560;DHT22;2803;47.916;8.074;2024-02-26T13:01:00;15.30;99.90
5560;DHT22;2803;47.916;8.074;2024-02-26T13:03:28;15.10;99.90
5560;DHT22;2803;47.916;8.074;2024-02-26T13:05:55;15.30;99.90
5560;DHT22;2803;47.916;8.074;2024-02-26T13:08:23;15.50;99.90
5560;DHT22;2803;47.916;8.074;2024-02-26T13:10:50;14.60;99.90
5560;DHT22;2803;47.916;8.074;2024-02-26T13:13:18;14.40;99.90
5560;DHT22;2803;47.916;8.074;2024-02-26T13:15:45;14.40;99.90
5560;DHT22;2803;47.916;8.074;2024-02-26T13:18:13;14.50;99.90
5560;DHT22;2803;47.916;8.074;2024-02-26T13:20:41;15.70;99.90
5560;DHT22;2803;47.916;8.074;2024-02-26T13:23:10;16.00;99.90
5560;DHT22;2803;47.916;8.074;2024-02-26T13:25:39;16.00;99.90
5560;DHT22;2803;47.916;8.074;2024-02-26T13:28:07;16.70;99.90
5560;DHT22;2803;47.916;8.074;2024-02-26T13:30:35;17.20;99.90
5560;DHT22;2803;47.916;8.074;2024-02-26T13:33:07;17.00;99.90
5560;DHT22;2803;47.916;8.074;2024-02-26T13:35:35;16.90;99.90
5560;DHT22;2803;47.916;8.074;2024-02-26T13:38:02;16.20;99.90
5560;DHT22;2803;47.916;8.074;2024-02-26T13:40:29;16.50;99.90
5560;DHT22;2803;47.916;8.074;2024-02-26T13:42:57;16.70;99.90
5560;DHT22;2803;47.916;8.074;2024-02-26T13:45:23;17.20;99.90
5560;DHT22;2803;47.916;8.074;2024-02-26T13:47:50;16.70;99.90
5560;DHT22;2803;47.916;8.074;2024-02-26T13:50:16;16.80;99.90
5560;DHT22;2803;47.916;8.074;2024-02-26T13:52:46;16.60;99.90
5560;DHT22;2803;47.916;8.074;2024-02-26T13:55:18;16.40;99.60
5560;DHT22;2803;47.916;8.074;2024-02-26T13:57:46;16.10;99.10
5560;DHT22;2803;47.916;8.074;2024-02-26T14:00:15;16.10;99.80
5560;DHT22;2803;47.916;8.074;2024-02-26T14:02:41;16.00;99.30
5560;DHT22;2803;47.916;8.074;2024-02-26T14:05:08;16.10;99.90
5560;DHT22;2803;47.916;8.074;2024-02-26T14:07:35;15.90;99.90
5560;DHT22;2803;47.916;8.074;2024-02-26T14:10:02;16.00;99.10
5560;DHT22;2803;47.916;8.074;2024-02-26T14:12:28;16.10;99.00
5560;DHT22;2803;47.916;8.074;2024-02-26T14:14:55;15.80;98.70
5560;DHT22;2803;47.916;8.074;2024-02-26T14:17:23;14.90;99.90
5560;DHT22;2803;47.916;8.074;2024-02-26T14:19:50;15.00;99.20
5560;DHT22;2803;47.916;8.074;2024-02-26T14:22:17;14.60;98.90
5560;DHT22;2803;47.916;8.074;2024-02-26T14:24:43;14.40;98.60
5560;DHT22;2803;47.916;8.074;2024-02-26T14:27:12;14.00;99.40
5560;DHT22;2803;47.916;8.074;2024-02-26T14:29:41;14.20;99.60
5560;DHT22;2803;47.916;8.074;2024-02-26T14:32:08;14.50;99.40
5560;DHT22;2803;47.916;8.074;2024-02-26T14:34:36;13.70;99.90
5560;DHT22;2803;47.916;8.074;2024-02-26T14:37:03;14.20;99.90
5560;DHT22;2803;47.916;8.074;2024-02-26T14:39:31;14.80;99.90
5560;DHT22;2803;47.916;8.074;2024-02-26T14:41:58;15.10;99.90
5560;DHT22;2803;47.916;8.074;2024-02-26T14:44:25;15.10;99.80
5560;DHT22;2803;47.916;8.074;2024-02-26T14:46:52;15.40;99.30
5560;DHT22;2803;47.916;8.074;2024-02-26T14:49:19;14.60;99.90
5560;DHT22;2803;47.916;8.074;2024-02-26T14:51:47;14.70;99.90
5560;DHT22;2803;47.916;8.074;2024-02-26T14:54:13;14.40;99.90
5560;DHT22;2803;47.916;8.074;2024-02-26T14:56:40;14.70;99.90
5560;DHT22;2803;47.916;8.074;2024-02-26T14:59:07;14.90;99.90
5560;DHT22;2803;47.916;8.074;2024-02-26T15:01:34;14.70;99.90
5560;DHT22;2803;47.916;8.074;2024-02-26T15:04:00;14.90;99.90
5560;DHT22;2803;47.916;8.074;2024-02-26T15:06:27;14.90;99.90
5560;DHT22;2803;47.916;8.074;2024-02-26T15:08:55;15.00;99.90
5560;DHT22;2803;47.916;8.074;2024-02-26T15:11:22;15.30;99.90
5560;DHT22;2803;47.916;8.074;2024-02-26T15:13:48;15.10;99.90
5560;DHT22;2803;47.916;8.074;2024-02-26T15:16:18;15.20;99.90
5560;DHT22;2803;47.916;8.074;2024-02-26T15:18:46;15.30;99.90
5560;DHT22;2803;47.916;8.074;2024-02-26T15:21:13;15.10;99.90
5560;DHT22;2803;47.916;8.074;2024-02-26T15:23:42;14.70;99.90
5560;DHT22;2803;47.916;8.074;2024-02-26T15:26:11;14.50;99.90
5560;DHT22;2803;47.916;8.074;2024-02-26T15:28:37;14.50;99.90
5560;DHT22;2803;47.916;8.074;2024-02-26T15:31:04;14.60;99.90
5560;DHT22;2803;47.916;8.074;2024-02-26T15:33:31;14.50;99.90
5560;DHT22;2803;47.916;8.074;2024-02-26T15:35:57;14.60;99.90
5560;DHT22;2803;47.916;8.074;2024-02-26T15:38:24;14.60;99.90
5560;DHT22;2803;47.916;8.074;2024-02-26T15:40:53;14.70;99.90
5560;DHT22;2803;47.916;8.074;2024-02-26T15:43:20;14.50;99.90
5560;DHT22;2803;47.916;8.074;2024-02-26T15:45:47;14.10;99.90
5560;DHT22;2803;47.916;8.074;2024-02-26T15:48:13;13.40;99.90
5560;DHT22;2803;47.916;8.074;2024-02-26T15:50:40;13.10;99.90
5560;DHT22;2803;47.916;8.074;2024-02-26T15:53:07;13.60;99.90
5560;DHT22;2803;47.916;8.074;2024-02-26T15:55:34;13.40;99.90
5560;DHT22;2803;47.916;8.074;2024-02-26T15:58:00;13.90;99.90
5560;DHT22;2803;47.916;8.074;2024-02-26T16:00:29;14.10;99.90
5560;DHT22;2803;47.916;8.074;2024-02-26T16:02:55;13.90;99.90
5560;DHT22;2803;47.916;8.074;2024-02-26T16:05:22;14.00;99.90
5560;DHT22;2803;47.916;8.074;2024-02-26T16:07:51;14.10;99.90
5560;DHT22;2803;47.916;8.074;2024-02-26T16:10:18;14.10;99.90
5560;DHT22;2803;47.916;8.074;2024-02-26T16:12:49;13.60;99.90